Terminal Aerodrome Forecast
Issued by NWS

Home | Current Version | Previous Version | Text Only | Print | Product List | Glossary On
Versions: 1 2 3 4 5 6 7 8 9 10 11 12 13 14 15 16 17
000
FTUS41 KPBZ 271728
TAFBVI
TAF
KBVI 271728Z 2718/2818 19012G18KT P6SM BKN200
     FM272000 18009G18KT P6SM -SHRA VCTS BKN050CB
      TEMPO 2721/2723 22010G30KT 5SM -TSRA BKN025CB
     FM280000 21008KT P6SM BKN050
     FM280700 26004KT P6SM BKN015
     FM281300 20004KT P6SM SCT025=

USA.gov is the U.S. government's official web portal to all federal, state and local government web resources and services.